sensor_id;sensor_type;location;lat;lon;timestamp;pressure;altitude;pressure_sealevel;temperature;humidity
59877;BME280;74472;51.140;17.184;2024-03-25T00:01:08;98551.03;;;7.06;70.91
59877;BME280;74472;51.140;17.184;2024-03-25T00:03:33;98555.59;;;7.14;71.14
59877;BME280;74472;51.140;17.184;2024-03-25T00:05:59;98552.97;;;7.14;70.86
59877;BME280;74472;51.140;17.184;2024-03-25T00:08:24;98556.56;;;7.13;70.98
59877;BME280;74472;51.140;17.184;2024-03-25T00:10:49;98548.97;;;7.10;71.16
59877;BME280;74472;51.140;17.184;2024-03-25T00:13:15;98550.19;;;7.05;71.23
59877;BME280;74472;51.140;17.184;2024-03-25T00:15:40;98554.47;;;7.07;71.33
59877;BME280;74472;51.140;17.184;2024-03-25T00:18:06;98546.19;;;7.01;71.33
59877;BME280;74472;51.140;17.184;2024-03-25T00:20:32;98553.22;;;7.01;71.43
59877;BME280;74472;51.140;17.184;2024-03-25T00:22:57;98552.38;;;7.00;71.59
59877;BME280;74472;51.140;17.184;2024-03-25T00:25:22;98549.63;;;7.02;71.74
59877;BME280;74472;51.140;17.184;2024-03-25T00:27:48;98546.03;;;7.03;71.81
59877;BME280;74472;51.140;17.184;2024-03-25T00:30:13;98540.69;;;7.04;71.94
59877;BME280;74472;51.140;17.184;2024-03-25T00:32:38;98547.88;;;7.12;72.21
59877;BME280;74472;51.140;17.184;2024-03-25T00:35:04;98540.72;;;7.14;72.12
59877;BME280;74472;51.140;17.184;2024-03-25T00:37:29;98535.59;;;7.13;72.12
59877;BME280;74472;51.140;17.184;2024-03-25T00:39:55;98522.63;;;7.11;72.03
59877;BME280;74472;51.140;17.184;2024-03-25T00:42:20;98515.69;;;7.10;72.13
59877;BME280;74472;51.140;17.184;2024-03-25T00:44:45;98531.44;;;7.10;72.17
59877;BME280;74472;51.140;17.184;2024-03-25T00:47:10;98530.34;;;7.13;72.09
59877;BME280;74472;51.140;17.184;2024-03-25T00:49:36;98535.72;;;7.11;72.12
59877;BME280;74472;51.140;17.184;2024-03-25T00:52:01;98533.94;;;7.12;72.25
59877;BME280;74472;51.140;17.184;2024-03-25T00:54:27;98527.88;;;7.11;72.32
59877;BME280;74472;51.140;17.184;2024-03-25T00:56:52;98533.53;;;7.16;72.35
59877;BME280;74472;51.140;17.184;2024-03-25T00:59:18;98535.59;;;7.13;72.31
59877;BME280;74472;51.140;17.184;2024-03-25T01:01:44;98539.44;;;7.09;72.39
59877;BME280;74472;51.140;17.184;2024-03-25T01:04:09;98543.41;;;7.03;72.85
59877;BME280;74472;51.140;17.184;2024-03-25T01:06:34;98547.69;;;6.94;73.68
59877;BME280;74472;51.140;17.184;2024-03-25T01:08:59;98548.28;;;6.77;74.19
59877;BME280;74472;51.140;17.184;2024-03-25T01:11:25;98563.84;;;6.69;74.61
59877;BME280;74472;51.140;17.184;2024-03-25T01:13:50;98571.31;;;6.52;75.07
59877;BME280;74472;51.140;17.184;2024-03-25T01:16:16;98565.69;;;6.36;75.48
59877;BME280;74472;51.140;17.184;2024-03-25T01:18:41;98567.53;;;6.24;75.91
59877;BME280;74472;51.140;17.184;2024-03-25T01:21:06;98567.66;;;6.23;76.33
59877;BME280;74472;51.140;17.184;2024-03-25T01:23:32;98567.09;;;6.19;76.79
59877;BME280;74472;51.140;17.184;2024-03-25T01:25:57;98557.94;;;6.14;77.30
59877;BME280;74472;51.140;17.184;2024-03-25T01:28:23;98557.22;;;6.11;77.48
59877;BME280;74472;51.140;17.184;2024-03-25T01:30:48;98556.28;;;6.13;77.66
59877;BME280;74472;51.140;17.184;2024-03-25T01:33:14;98546.06;;;6.09;77.83
59877;BME280;74472;51.140;17.184;2024-03-25T01:35:40;98537.13;;;6.12;78.15
59877;BME280;74472;51.140;17.184;2024-03-25T01:38:05;98537.75;;;6.04;77.83
59877;BME280;74472;51.140;17.184;2024-03-25T01:40:30;98526.69;;;6.01;78.30
59877;BME280;74472;51.140;17.184;2024-03-25T01:42:57;98530.59;;;6.06;78.89
59877;BME280;74472;51.140;17.184;2024-03-25T01:45:24;98530.09;;;6.13;78.88
59877;BME280;74472;51.140;17.184;2024-03-25T01:47:50;98531.38;;;6.18;79.02
59877;BME280;74472;51.140;17.184;2024-03-25T01:50:16;98533.47;;;6.24;78.98
59877;BME280;74472;51.140;17.184;2024-03-25T01:52:41;98525.00;;;6.32;79.25
59877;BME280;74472;51.140;17.184;2024-03-25T01:55:09;98521.59;;;6.41;78.97
59877;BME280;74472;51.140;17.184;2024-03-25T01:57:37;98518.59;;;6.46;78.82
59877;BME280;74472;51.140;17.184;2024-03-25T02:00:04;98515.78;;;6.58;78.85
59877;BME280;74472;51.140;17.184;2024-03-25T02:02:30;98517.75;;;6.66;78.85
59877;BME280;74472;51.140;17.184;2024-03-25T02:04:57;98511.97;;;6.72;78.68
59877;BME280;74472;51.140;17.184;2024-03-25T02:07:24;98507.97;;;6.68;78.67
59877;BME280;74472;51.140;17.184;2024-03-25T02:09:52;98504.31;;;6.60;79.04
59877;BME280;74472;51.140;17.184;2024-03-25T02:12:17;98502.16;;;6.65;79.20
59877;BME280;74472;51.140;17.184;2024-03-25T02:14:43;98496.63;;;6.68;79.03
59877;BME280;74472;51.140;17.184;2024-03-25T02:17:08;98496.47;;;6.60;79.11
59877;BME280;74472;51.140;17.184;2024-03-25T02:19:35;98505.03;;;6.62;79.25
59877;BME280;74472;51.140;17.184;2024-03-25T02:22:02;98504.19;;;6.61;79.28
59877;BME280;74472;51.140;17.184;2024-03-25T02:24:28;98506.69;;;6.63;79.42
59877;BME280;74472;51.140;17.184;2024-03-25T02:26:55;98505.19;;;6.70;79.57
59877;BME280;74472;51.140;17.184;2024-03-25T02:29:20;98504.22;;;6.71;79.46
59877;BME280;74472;51.140;17.184;2024-03-25T02:31:46;98507.00;;;6.69;79.42
59877;BME280;74472;51.140;17.184;2024-03-25T02:34:12;98505.91;;;6.72;79.78
59877;BME280;74472;51.140;17.184;2024-03-25T02:36:37;98508.69;;;6.80;79.63
59877;BME280;74472;51.140;17.184;2024-03-25T02:39:03;98501.53;;;6.82;79.59
59877;BME280;74472;51.140;17.184;2024-03-25T02:41:30;98512.19;;;6.90;79.55
59877;BME280;74472;51.140;17.184;2024-03-25T02:43:56;98517.88;;;6.95;79.66
59877;BME280;74472;51.140;17.184;2024-03-25T02:46:22;98524.38;;;7.01;79.75
59877;BME280;74472;51.140;17.184;2024-03-25T02:48:48;98519.50;;;6.96;79.53
59877;BME280;74472;51.140;17.184;2024-03-25T02:51:13;98520.44;;;6.86;79.65
59877;BME280;74472;51.140;17.184;2024-03-25T02:53:38;98515.00;;;6.77;79.80
59877;BME280;74472;51.140;17.184;2024-03-25T02:56:04;98515.16;;;6.76;79.90
59877;BME280;74472;51.140;17.184;2024-03-25T02:58:29;98517.59;;;6.68;80.20
59877;BME280;74472;51.140;17.184;2024-03-25T03:00:54;98513.78;;;6.72;80.48
59877;BME280;74472;51.140;17.184;2024-03-25T03:03:19;98516.13;;;6.75;80.49
59877;BME280;74472;51.140;17.184;2024-03-25T03:05:45;98514.63;;;6.82;80.55
59877;BME280;74472;51.140;17.184;2024-03-25T03:08:10;98518.78;;;6.85;80.60
59877;BME280;74472;51.140;17.184;2024-03-25T03:10:35;98520.56;;;6.84;80.45
59877;BME280;74472;51.140;17.184;2024-03-25T03:13:00;98516.28;;;6.83;80.55
59877;BME280;74472;51.140;17.184;2024-03-25T03:15:26;98515.16;;;6.76;81.02
59877;BME280;74472;51.140;17.184;2024-03-25T03:17:51;98518.88;;;6.73;81.04
59877;BME280;74472;51.140;17.184;2024-03-25T03:20:16;98515.28;;;6.74;80.96
59877;BME280;74472;51.140;17.184;2024-03-25T03:22:41;98510.88;;;6.75;81.10
59877;BME280;74472;51.140;17.184;2024-03-25T03:25:07;98516.97;;;6.75;81.09
59877;BME280;74472;51.140;17.184;2024-03-25T03:27:32;98512.09;;;6.71;81.27
59877;BME280;74472;51.140;17.184;2024-03-25T03:29:58;98528.00;;;6.79;81.40
59877;BME280;74472;51.140;17.184;2024-03-25T03:32:23;98510.75;;;6.76;81.55
59877;BME280;74472;51.140;17.184;2024-03-25T03:34:48;98517.78;;;6.76;81.43
59877;BME280;74472;51.140;17.184;2024-03-25T03:37:13;98529.66;;;6.80;81.53
59877;BME280;74472;51.140;17.184;2024-03-25T03:39:39;98524.69;;;6.77;81.66
59877;BME280;74472;51.140;17.184;2024-03-25T03:42:05;98524.00;;;6.75;81.68
59877;BME280;74472;51.140;17.184;2024-03-25T03:44:30;98527.69;;;6.72;81.74
59877;BME280;74472;51.140;17.184;2024-03-25T03:46:56;98523.50;;;6.60;81.43
59877;BME280;74472;51.140;17.184;2024-03-25T03:49:21;98537.94;;;6.54;81.78
59877;BME280;74472;51.140;17.184;2024-03-25T03:51:46;98532.28;;;6.49;82.07
59877;BME280;74472;51.140;17.184;2024-03-25T03:54:11;98536.13;;;6.45;82.37
59877;BME280;74472;51.140;17.184;2024-03-25T03:56:37;98537.31;;;6.41;82.31
59877;BME280;74472;51.140;17.184;2024-03-25T03:59:02;98550.66;;;6.38;82.53
59877;BME280;74472;51.140;17.184;2024-03-25T04:01:27;98542.06;;;6.26;82.69
59877;BME280;74472;51.140;17.184;2024-03-25T04:03:53;98542.31;;;6.23;82.74
59877;BME280;74472;51.140;17.184;2024-03-25T04:06:18;98542.38;;;6.12;82.70
59877;BME280;74472;51.140;17.184;2024-03-25T04:08:44;98545.09;;;6.10;83.06
59877;BME280;74472;51.140;17.184;2024-03-25T04:11:09;98535.03;;;6.06;83.08
59877;BME280;74472;51.140;17.184;2024-03-25T04:13:35;98551.16;;;6.11;83.22
59877;BME280;74472;51.140;17.184;2024-03-25T04:16:05;98544.19;;;6.00;83.32
59877;BME280;74472;51.140;17.184;2024-03-25T04:18:32;98550.41;;;5.99;83.53
59877;BME280;74472;51.140;17.184;2024-03-25T04:20:58;98548.72;;;5.98;83.83
59877;BME280;74472;51.140;17.184;2024-03-25T04:23:23;98548.72;;;5.98;83.77
59877;BME280;74472;51.140;17.184;2024-03-25T04:25:50;98553.84;;;6.00;83.97
59877;BME280;74472;51.140;17.184;2024-03-25T04:28:15;98552.06;;;6.00;84.34
59877;BME280;74472;51.140;17.184;2024-03-25T04:30:40;98549.19;;;6.03;84.16
59877;BME280;74472;51.140;17.184;2024-03-25T04:33:06;98544.31;;;5.99;84.02
59877;BME280;74472;51.140;17.184;2024-03-25T04:35:32;98550.84;;;6.04;84.08
59877;BME280;74472;51.140;17.184;2024-03-25T04:37:57;98553.34;;;6.06;84.20
59877;BME280;74472;51.140;17.184;2024-03-25T04:40:22;98546.06;;;6.09;83.99
59877;BME280;74472;51.140;17.184;2024-03-25T04:42:48;98540.44;;;6.14;84.18
59877;BME280;74472;51.140;17.184;2024-03-25T04:45:13;98546.16;;;6.19;84.17
59877;BME280;74472;51.140;17.184;2024-03-25T04:47:39;98548.38;;;6.24;84.20
59877;BME280;74472;51.140;17.184;2024-03-25T04:50:05;98553.81;;;6.32;84.11
59877;BME280;74472;51.140;17.184;2024-03-25T04:52:30;98555.31;;;6.34;84.24
59877;BME280;74472;51.140;17.184;2024-03-25T04:54:55;98555.53;;;6.43;84.18
59877;BME280;74472;51.140;17.184;2024-03-25T04:57:21;98551.84;;;6.45;84.05
59877;BME280;74472;51.140;17.184;2024-03-25T04:59:46;98560.63;;;6.44;83.77
59877;BME280;74472;51.140;17.184;2024-03-25T05:02:12;98560.28;;;6.49;84.07
59877;BME280;74472;51.140;17.184;2024-03-25T05:04:37;98563.47;;;6.52;84.03
59877;BME280;74472;51.140;17.184;2024-03-25T05:07:02;98568.00;;;6.50;84.05
59877;BME280;74472;51.140;17.184;2024-03-25T05:09:28;98569.06;;;6.48;84.08
59877;BME280;74472;51.140;17.184;2024-03-25T05:11:53;98572.09;;;6.43;84.19
59877;BME280;74472;51.140;17.184;2024-03-25T05:14:18;98571.38;;;6.41;84.43
59877;BME280;74472;51.140;17.184;2024-03-25T05:16:43;98577.50;;;6.51;84.34
59877;BME280;74472;51.140;17.184;2024-03-25T05:19:09;98579.03;;;6.54;84.13
59877;BME280;74472;51.140;17.184;2024-03-25T05:21:34;98580.97;;;6.52;83.95
59877;BME280;74472;51.140;17.184;2024-03-25T05:23:59;98579.94;;;6.43;84.19
59877;BME280;74472;51.140;17.184;2024-03-25T05:26:25;98576.09;;;6.47;84.60
59877;BME280;74472;51.140;17.184;2024-03-25T05:28:54;98593.22;;;6.51;84.51
59877;BME280;74472;51.140;17.184;2024-03-25T05:31:20;98587.72;;;6.54;84.69
59877;BME280;74472;51.140;17.184;2024-03-25T05:33:45;98586.06;;;6.53;84.52
59877;BME280;74472;51.140;17.184;2024-03-25T05:36:10;98589.41;;;6.55;84.50
59877;BME280;74472;51.140;17.184;2024-03-25T05:38:36;98591.31;;;6.53;84.68
59877;BME280;74472;51.140;17.184;2024-03-25T05:41:01;98585.25;;;6.53;84.63
59877;BME280;74472;51.140;17.184;2024-03-25T05:43:26;98593.94;;;6.53;84.81
59877;BME280;74472;51.140;17.184;2024-03-25T05:45:55;98600.41;;;6.49;84.53
59877;BME280;74472;51.140;17.184;2024-03-25T05:48:21;98602.31;;;6.47;84.73
59877;BME280;74472;51.140;17.184;2024-03-25T05:53:29;98626.19;;;6.33;84.42
59877;BME280;74472;51.140;17.184;2024-03-25T05:55:55;98624.72;;;6.19;84.75
59877;BME280;74472;51.140;17.184;2024-03-25T05:58:20;98624.63;;;6.09;84.83
59877;BME280;74472;51.140;17.184;2024-03-25T06:00:49;98625.88;;;5.94;84.89
59877;BME280;74472;51.140;17.184;2024-03-25T06:03:15;98637.75;;;5.87;85.49
59877;BME280;74472;51.140;17.184;2024-03-25T06:05:40;98629.06;;;5.75;85.41
59877;BME280;74472;51.140;17.184;2024-03-25T06:08:07;98650.16;;;5.74;85.21
59877;BME280;74472;51.140;17.184;2024-03-25T06:10:37;98654.22;;;5.67;85.71
59877;BME280;74472;51.140;17.184;2024-03-25T06:13:02;98644.22;;;5.60;85.95
59877;BME280;74472;51.140;17.184;2024-03-25T06:15:28;98642.69;;;5.58;86.30
59877;BME280;74472;51.140;17.184;2024-03-25T06:17:53;98653.00;;;5.71;86.44
59877;BME280;74472;51.140;17.184;2024-03-25T06:20:18;98644.44;;;5.69;86.44
59877;BME280;74472;51.140;17.184;2024-03-25T06:22:44;98647.78;;;5.71;86.61
59877;BME280;74472;51.140;17.184;2024-03-25T06:25:09;98655.84;;;5.79;86.53
59877;BME280;74472;51.140;17.184;2024-03-25T06:27:34;98661.78;;;5.81;86.47
59877;BME280;74472;51.140;17.184;2024-03-25T06:29:59;98659.91;;;5.83;86.61
59877;BME280;74472;51.140;17.184;2024-03-25T06:32:45;98681.28;;;5.88;86.55
59877;BME280;74472;51.140;17.184;2024-03-25T06:35:28;98675.84;;;5.80;86.54
59877;BME280;74472;51.140;17.184;2024-03-25T06:37:54;98676.91;;;5.77;86.98
59877;BME280;74472;51.140;17.184;2024-03-25T06:40:19;98683.22;;;5.75;87.16
59877;BME280;74472;51.140;17.184;2024-03-25T06:42:44;98673.22;;;5.69;87.41
59877;BME280;74472;51.140;17.184;2024-03-25T06:45:10;98685.25;;;5.71;87.74
59877;BME280;74472;51.140;17.184;2024-03-25T06:47:35;98689.41;;;5.74;88.06
59877;BME280;74472;51.140;17.184;2024-03-25T06:50:00;98687.75;;;5.73;88.06
59877;BME280;74472;51.140;17.184;2024-03-25T06:52:26;98698.44;;;5.81;88.08
59877;BME280;74472;51.140;17.184;2024-03-25T06:54:51;98701.53;;;5.86;88.31
59877;BME280;74472;51.140;17.184;2024-03-25T06:57:17;98690.59;;;5.81;88.10
59877;BME280;74472;51.140;17.184;2024-03-25T06:59:42;98711.63;;;5.91;88.06
59877;BME280;74472;51.140;17.184;2024-03-25T07:02:07;98707.72;;;5.85;88.31
59877;BME280;74472;51.140;17.184;2024-03-25T07:04:32;98706.44;;;5.79;88.33
59877;BME280;74472;51.140;17.184;2024-03-25T07:06:58;98704.63;;;5.80;88.26
59877;BME280;74472;51.140;17.184;2024-03-25T07:09:23;98724.97;;;5.87;88.45
59877;BME280;74472;51.140;17.184;2024-03-25T07:11:49;98730.19;;;5.87;88.25
59877;BME280;74472;51.140;17.184;2024-03-25T07:14:14;98729.38;;;5.87;88.50
59877;BME280;74472;51.140;17.184;2024-03-25T07:16:40;98728.31;;;5.90;88.27
59877;BME280;74472;51.140;17.184;2024-03-25T07:19:05;98731.75;;;5.90;88.34
59877;BME280;74472;51.140;17.184;2024-03-25T07:21:31;98729.47;;;5.85;88.53
59877;BME280;74472;51.140;17.184;2024-03-25T07:23:56;98739.94;;;5.85;88.52
59877;BME280;74472;51.140;17.184;2024-03-25T07:26:21;98737.34;;;5.85;88.95
59877;BME280;74472;51.140;17.184;2024-03-25T07:28:47;98743.19;;;5.89;88.97
59877;BME280;74472;51.140;17.184;2024-03-25T07:31:12;98747.13;;;5.83;89.04
59877;BME280;74472;51.140;17.184;2024-03-25T07:33:37;98750.69;;;5.82;89.48
59877;BME280;74472;51.140;17.184;2024-03-25T07:36:03;98746.28;;;5.83;89.46
59877;BME280;74472;51.140;17.184;2024-03-25T07:38:28;98748.19;;;5.81;89.47
59877;BME280;74472;51.140;17.184;2024-03-25T07:40:53;98749.50;;;5.86;89.69
59877;BME280;74472;51.140;17.184;2024-03-25T07:43:19;98757.09;;;5.90;89.88
59877;BME280;74472;51.140;17.184;2024-03-25T07:45:45;98754.16;;;5.94;89.82
59877;BME280;74472;51.140;17.184;2024-03-25T07:48:10;98765.09;;;5.99;90.02
59877;BME280;74472;51.140;17.184;2024-03-25T07:50:35;98754.41;;;6.02;90.12
59877;BME280;74472;51.140;17.184;2024-03-25T07:53:01;98763.06;;;6.14;90.52
59877;BME280;74472;51.140;17.184;2024-03-25T07:55:26;98764.56;;;6.28;91.20
59877;BME280;74472;51.140;17.184;2024-03-25T07:57:51;98766.47;;;6.37;90.69
59877;BME280;74472;51.140;17.184;2024-03-25T08:00:17;98771.22;;;6.43;90.56
59877;BME280;74472;51.140;17.184;2024-03-25T08:02:42;98772.75;;;6.46;90.05
59877;BME280;74472;51.140;17.184;2024-03-25T08:05:07;98780.72;;;6.44;90.27
59877;BME280;74472;51.140;17.184;2024-03-25T08:07:33;98779.06;;;6.43;90.36
59877;BME280;74472;51.140;17.184;2024-03-25T08:09:59;98776.31;;;6.45;90.06
59877;BME280;74472;51.140;17.184;2024-03-25T08:12:24;98774.56;;;6.45;90.24
59877;BME280;74472;51.140;17.184;2024-03-25T08:14:49;98795.97;;;6.50;90.46
59877;BME280;74472;51.140;17.184;2024-03-25T08:17:14;98789.53;;;6.54;90.10
59877;BME280;74472;51.140;17.184;2024-03-25T08:19:40;98794.50;;;6.57;90.13
59877;BME280;74472;51.140;17.184;2024-03-25T08:22:05;98790.09;;;6.58;89.94
59877;BME280;74472;51.140;17.184;2024-03-25T08:24:30;98781.41;;;6.57;90.30
59877;BME280;74472;51.140;17.184;2024-03-25T08:26:55;98803.69;;;6.63;89.67
59877;BME280;74472;51.140;17.184;2024-03-25T08:29:21;98806.78;;;6.57;89.59
59877;BME280;74472;51.140;17.184;2024-03-25T08:31:46;98809.78;;;6.52;89.50
59877;BME280;74472;51.140;17.184;2024-03-25T08:34:11;98819.44;;;6.52;89.60
59877;BME280;74472;51.140;17.184;2024-03-25T08:36:37;98821.81;;;6.55;89.97
59877;BME280;74472;51.140;17.184;2024-03-25T08:39:02;98822.41;;;6.58;90.03
59877;BME280;74472;51.140;17.184;2024-03-25T08:41:28;98820.63;;;6.59;89.76
59877;BME280;74472;51.140;17.184;2024-03-25T08:43:53;98816.44;;;6.56;89.65
59877;BME280;74472;51.140;17.184;2024-03-25T08:46:20;98825.63;;;6.62;90.04
59877;BME280;74472;51.140;17.184;2024-03-25T08:48:45;98831.19;;;6.69;90.21
59877;BME280;74472;51.140;17.184;2024-03-25T08:51:10;98837.72;;;6.74;90.29
59877;BME280;74472;51.140;17.184;2024-03-25T08:53:36;98833.19;;;6.76;90.28
59877;BME280;74472;51.140;17.184;2024-03-25T08:56:01;98839.25;;;6.77;89.74
59877;BME280;74472;51.140;17.184;2024-03-25T08:58:26;98833.09;;;6.67;89.12
59877;BME280;74472;51.140;17.184;2024-03-25T09:00:52;98840.72;;;6.70;89.26
59877;BME280;74472;51.140;17.184;2024-03-25T09:03:17;98841.94;;;6.66;89.60
59877;BME280;74472;51.140;17.184;2024-03-25T09:05:42;98843.81;;;6.64;90.07
59877;BME280;74472;51.140;17.184;2024-03-25T09:08:08;98840.63;;;6.60;90.24
59877;BME280;74472;51.140;17.184;2024-03-25T09:10:36;98857.16;;;6.72;90.45
59877;BME280;74472;51.140;17.184;2024-03-25T09:13:20;98855.81;;;6.77;90.85
59877;BME280;74472;51.140;17.184;2024-03-25T09:15:45;98846.44;;;6.75;90.59
59877;BME280;74472;51.140;17.184;2024-03-25T09:18:10;98859.16;;;6.79;90.75
59877;BME280;74472;51.140;17.184;2024-03-25T09:20:36;98867.63;;;6.83;90.10
59877;BME280;74472;51.140;17.184;2024-03-25T09:23:01;98872.66;;;6.75;89.86
59877;BME280;74472;51.140;17.184;2024-03-25T09:25:27;98868.97;;;6.66;89.97
59877;BME280;74472;51.140;17.184;2024-03-25T09:27:52;98887.56;;;6.63;89.79
59877;BME280;74472;51.140;17.184;2024-03-25T09:30:18;98892.31;;;6.58;90.57
59877;BME280;74472;51.140;17.184;2024-03-25T09:32:44;98891.16;;;6.62;90.83
59877;BME280;74472;51.140;17.184;2024-03-25T09:35:10;98888.88;;;6.69;91.23
59877;BME280;74472;51.140;17.184;2024-03-25T09:37:36;98881.00;;;6.69;90.56
59877;BME280;74472;51.140;17.184;2024-03-25T09:40:02;98894.34;;;6.66;90.46
59877;BME280;74472;51.140;17.184;2024-03-25T09:42:39;98886.50;;;6.66;90.64
59877;BME280;74472;51.140;17.184;2024-03-25T09:45:07;98881.25;;;6.66;90.89
59877;BME280;74472;51.140;17.184;2024-03-25T09:47:33;98889.81;;;6.79;91.44
59877;BME280;74472;51.140;17.184;2024-03-25T09:49:59;98893.22;;;6.91;92.36
59877;BME280;74472;51.140;17.184;2024-03-25T09:52:27;98884.28;;;6.93;91.59
59877;BME280;74472;51.140;17.184;2024-03-25T09:54:52;98892.47;;;7.00;91.05
59877;BME280;74472;51.140;17.184;2024-03-25T09:57:18;98888.31;;;6.97;91.09
59877;BME280;74472;51.140;17.184;2024-03-25T09:59:44;98885.69;;;6.97;91.19
59877;BME280;74472;51.140;17.184;2024-03-25T10:02:10;98898.06;;;7.07;91.00
59877;BME280;74472;51.140;17.184;2024-03-25T10:04:39;98887.56;;;7.07;91.23
59877;BME280;74472;51.140;17.184;2024-03-25T10:07:09;98906.34;;;7.34;92.36
59877;BME280;74472;51.140;17.184;2024-03-25T10:09:34;98898.66;;;7.42;91.28
59877;BME280;74472;51.140;17.184;2024-03-25T10:11:59;98896.16;;;7.41;90.22
59877;BME280;74472;51.140;17.184;2024-03-25T10:14:25;98904.63;;;7.44;90.25
59877;BME280;74472;51.140;17.184;2024-03-25T10:16:50;98902.56;;;7.48;90.90
59877;BME280;74472;51.140;17.184;2024-03-25T10:19:15;98914.09;;;7.57;90.52
59877;BME280;74472;51.140;17.184;2024-03-25T10:21:41;98918.66;;;7.55;90.17
59877;BME280;74472;51.140;17.184;2024-03-25T10:24:06;98921.59;;;7.61;90.09
59877;BME280;74472;51.140;17.184;2024-03-25T10:26:33;98933.50;;;7.65;90.37
59877;BME280;74472;51.140;17.184;2024-03-25T10:29:06;98928.41;;;7.64;89.13
59877;BME280;74472;51.140;17.184;2024-03-25T10:31:32;98931.03;;;7.64;88.49
59877;BME280;74472;51.140;17.184;2024-03-25T10:33:58;98931.13;;;7.62;88.37
59877;BME280;74472;51.140;17.184;2024-03-25T10:36:24;98932.78;;;7.63;88.78
59877;BME280;74472;51.140;17.184;2024-03-25T10:38:55;98931.09;;;7.73;89.63
59877;BME280;74472;51.140;17.184;2024-03-25T10:41:20;98934.22;;;7.88;89.32
59877;BME280;74472;51.140;17.184;2024-03-25T10:43:47;98923.94;;;7.96;89.04
59877;BME280;74472;51.140;17.184;2024-03-25T10:46:20;98934.09;;;8.11;88.75
59877;BME280;74472;51.140;17.184;2024-03-25T10:48:56;98929.41;;;8.14;88.65
59877;BME280;74472;51.140;17.184;2024-03-25T10:51:26;98936.91;;;8.19;87.29
59877;BME280;74472;51.140;17.184;2024-03-25T10:53:52;98932.19;;;8.13;87.89
59877;BME280;74472;51.140;17.184;2024-03-25T10:56:22;98930.38;;;8.13;87.37
59877;BME280;74472;51.140;17.184;2024-03-25T10:58:50;98942.94;;;8.10;86.91
59877;BME280;74472;51.140;17.184;2024-03-25T11:01:18;98950.78;;;8.00;87.32
59877;BME280;74472;51.140;17.184;2024-03-25T11:03:47;98942.38;;;7.85;87.04
59877;BME280;74472;51.140;17.184;2024-03-25T11:06:13;98942.50;;;7.84;86.93
59877;BME280;74472;51.140;17.184;2024-03-25T11:08:39;98941.06;;;7.80;87.87
59877;BME280;74472;51.140;17.184;2024-03-25T11:11:07;98951.25;;;7.73;87.52
59877;BME280;74472;51.140;17.184;2024-03-25T11:13:32;98956.56;;;7.62;87.71
59877;BME280;74472;51.140;17.184;2024-03-25T11:15:58;98977.81;;;7.59;87.25
59877;BME280;74472;51.140;17.184;2024-03-25T11:18:25;98951.19;;;7.31;87.58
59877;BME280;74472;51.140;17.184;2024-03-25T11:21:06;98969.31;;;7.23;87.39
59877;BME280;74472;51.140;17.184;2024-03-25T11:23:41;98952.81;;;7.00;87.54
59877;BME280;74472;51.140;17.184;2024-03-25T11:26:18;98952.22;;;6.96;88.12
59877;BME280;74472;51.140;17.184;2024-03-25T11:28:43;98956.84;;;7.04;88.66
59877;BME280;74472;51.140;17.184;2024-03-25T11:31:09;98949.31;;;7.11;89.43
59877;BME280;74472;51.140;17.184;2024-03-25T11:33:39;98950.84;;;7.24;90.38
59877;BME280;74472;51.140;17.184;2024-03-25T11:36:05;98950.31;;;7.42;91.49
59877;BME280;74472;51.140;17.184;2024-03-25T11:38:31;98952.13;;;7.62;92.55
59877;BME280;74472;51.140;17.184;2024-03-25T11:40:56;98951.47;;;7.81;91.45
59877;BME280;74472;51.140;17.184;2024-03-25T11:43:22;98938.19;;;7.83;90.95
59877;BME280;74472;51.140;17.184;2024-03-25T11:45:48;98954.41;;;7.88;90.15
59877;BME280;74472;51.140;17.184;2024-03-25T11:48:17;98961.31;;;7.89;89.94
59877;BME280;74472;51.140;17.184;2024-03-25T11:50:48;98949.56;;;7.83;89.80
59877;BME280;74472;51.140;17.184;2024-03-25T11:53:14;98953.00;;;7.84;89.87
59877;BME280;74472;51.140;17.184;2024-03-25T11:55:40;98951.91;;;7.86;90.71
59877;BME280;74472;51.140;17.184;2024-03-25T11:58:07;98951.84;;;7.97;91.71
59877;BME280;74472;51.140;17.184;2024-03-25T12:00:33;98953.47;;;8.10;91.27
59877;BME280;74472;51.140;17.184;2024-03-25T12:02:58;98955.59;;;8.26;91.47
59877;BME280;74472;51.140;17.184;2024-03-25T12:05:25;98957.59;;;8.33;89.84
59877;BME280;74472;51.140;17.184;2024-03-25T12:07:51;98955.34;;;8.29;89.36
59877;BME280;74472;51.140;17.184;2024-03-25T12:10:16;98963.44;;;8.16;88.47
59877;BME280;74472;51.140;17.184;2024-03-25T12:13:00;98956.59;;;8.04;88.38
59877;BME280;74472;51.140;17.184;2024-03-25T12:15:26;98956.91;;;7.89;88.11
59877;BME280;74472;51.140;17.184;2024-03-25T12:17:51;98953.00;;;7.84;88.32
59877;BME280;74472;51.140;17.184;2024-03-25T12:20:17;98980.22;;;7.83;88.84
59877;BME280;74472;51.140;17.184;2024-03-25T12:22:43;98965.91;;;7.75;88.58
59877;BME280;74472;51.140;17.184;2024-03-25T12:25:08;98975.13;;;7.70;89.37
59877;BME280;74472;51.140;17.184;2024-03-25T12:27:36;98965.59;;;7.69;89.54
59877;BME280;74472;51.140;17.184;2024-03-25T12:30:05;98969.63;;;7.73;90.04
59877;BME280;74472;51.140;17.184;2024-03-25T12:32:38;98959.13;;;7.73;89.75
59877;BME280;74472;51.140;17.184;2024-03-25T12:35:15;98959.44;;;7.80;90.11
59877;BME280;74472;51.140;17.184;2024-03-25T12:37:42;98962.03;;;7.91;91.13
59877;BME280;74472;51.140;17.184;2024-03-25T12:40:14;98956.59;;;8.04;91.24
59877;BME280;74472;51.140;17.184;2024-03-25T12:42:52;98962.34;;;8.18;91.19
59877;BME280;74472;51.140;17.184;2024-03-25T12:45:18;98961.78;;;8.36;91.55
59877;BME280;74472;51.140;17.184;2024-03-25T12:47:43;98960.72;;;8.48;90.66
59877;BME280;74472;51.140;17.184;2024-03-25T12:50:09;98960.16;;;8.44;89.72
59877;BME280;74472;51.140;17.184;2024-03-25T12:52:34;98962.78;;;8.44;89.19
59877;BME280;74472;51.140;17.184;2024-03-25T12:54:59;98961.13;;;8.43;89.41
59877;BME280;74472;51.140;17.184;2024-03-25T12:57:25;98964.44;;;8.45;88.87